createdAt,value
2023-02-26T00:01:37.846Z,3.65
2023-02-26T00:04:06.554Z,4.63
2023-02-26T00:06:37.324Z,3.95
2023-02-26T00:09:05.648Z,4.38
2023-02-26T00:11:33.566Z,4.38
2023-02-26T00:14:00.873Z,3.63
2023-02-26T00:16:36.334Z,3.80
2023-02-26T00:19:07.017Z,3.60
2023-02-26T00:21:35.768Z,2.53
2023-02-26T00:24:03.685Z,3.40
2023-02-26T00:26:32.146Z,2.78
2023-02-26T00:29:00.134Z,2.75
2023-02-26T00:31:28.521Z,3.70
2023-02-26T00:33:57.593Z,2.42
2023-02-26T00:36:46.194Z,2.65
2023-02-26T00:39:34.445Z,2.83
2023-02-26T00:42:02.030Z,3.67
2023-02-26T00:44:29.487Z,2.67
2023-02-26T00:47:12.159Z,3.40
2023-02-26T00:49:50.919Z,2.45
2023-02-26T00:52:48.931Z,3.85
2023-02-26T00:55:16.267Z,2.60
2023-02-26T00:57:43.283Z,3.33
2023-02-26T01:00:11.222Z,3.15
2023-02-26T01:02:39.853Z,3.03
2023-02-26T01:05:08.335Z,2.40
2023-02-26T01:07:49.072Z,2.97
2023-02-26T01:10:16.642Z,3.20
2023-02-26T01:12:43.914Z,3.35
2023-02-26T01:15:11.571Z,3.75
2023-02-26T01:17:52.164Z,3.47
2023-02-26T01:20:24.717Z,3.40
2023-02-26T01:23:00.123Z,3.50
2023-02-26T01:25:55.050Z,3.78
2023-02-26T01:28:22.509Z,3.05
2023-02-26T01:30:51.846Z,2.78
2023-02-26T01:33:31.240Z,2.95
2023-02-26T01:36:25.069Z,3.50
2023-02-26T01:39:08.826Z,2.00
2023-02-26T01:42:15.844Z,3.47
2023-02-26T01:45:19.829Z,3.42
2023-02-26T01:48:00.900Z,4.68
2023-02-26T01:50:30.023Z,3.38
2023-02-26T01:53:20.789Z,3.70
2023-02-26T01:55:56.649Z,3.33
2023-02-26T01:58:26.411Z,3.00
2023-02-26T02:00:53.465Z,2.72
2023-02-26T02:03:24.878Z,2.08
2023-02-26T02:06:01.474Z,2.92
2023-02-26T02:08:28.853Z,2.33
2023-02-26T02:10:56.005Z,2.72
2023-02-26T02:14:00.324Z,2.58
2023-02-26T02:16:56.288Z,1.77
2023-02-26T02:19:44.410Z,2.60
2023-02-26T02:22:45.324Z,1.58
2023-02-26T02:25:40.240Z,1.65
2023-02-26T02:28:34.883Z,1.60
2023-02-26T02:31:27.237Z,1.45
2023-02-26T02:34:16.297Z,2.35
2023-02-26T02:37:06.907Z,1.55
2023-02-26T02:39:43.483Z,1.10
2023-02-26T02:42:18.513Z,2.10
2023-02-26T02:44:56.689Z,1.50
2023-02-26T02:47:25.214Z,1.65
2023-02-26T02:50:00.554Z,1.30
2023-02-26T02:52:38.280Z,1.02
2023-02-26T02:55:22.174Z,1.13
2023-02-26T02:58:00.977Z,1.10
2023-02-26T03:00:34.645Z,1.10
2023-02-26T03:03:28.100Z,1.33
2023-02-26T03:05:56.228Z,0.80
2023-02-26T03:08:31.966Z,1.08
2023-02-26T03:13:26.935Z,0.90
2023-02-26T03:16:41.131Z,1.05
2023-02-26T03:19:41.020Z,1.17
2023-02-26T03:22:25.509Z,0.77
2023-02-26T03:25:47.691Z,1.00
2023-02-26T03:28:25.535Z,0.88
2023-02-26T03:31:10.968Z,0.98
2023-02-26T03:34:01.956Z,0.85
2023-02-26T03:36:38.775Z,1.27
2023-02-26T03:39:34.656Z,0.90
2023-02-26T03:42:34.349Z,1.10
2023-02-26T03:45:19.355Z,0.88
2023-02-26T03:47:53.734Z,0.77
2023-02-26T03:50:47.404Z,1.30
2023-02-26T03:53:49.457Z,0.98
2023-02-26T03:56:31.211Z,2.40
2023-02-26T03:59:14.797Z,1.20
2023-02-26T04:02:05.438Z,0.97
2023-02-26T04:04:42.670Z,0.63
2023-02-26T04:07:13.120Z,1.23
2023-02-26T04:09:50.500Z,0.70
2023-02-26T04:12:24.059Z,3.17
2023-02-26T04:14:55.829Z,1.02
2023-02-26T04:17:22.932Z,0.75
2023-02-26T04:19:49.931Z,1.08
2023-02-26T04:22:17.053Z,0.90
2023-02-26T04:24:44.084Z,1.02
2023-02-26T04:27:13.942Z,1.00
2023-02-26T04:29:41.030Z,0.65
2023-02-26T04:32:08.224Z,0.73
2023-02-26T04:34:35.252Z,1.00
2023-02-26T04:37:02.867Z,0.90
2023-02-26T04:39:29.926Z,0.60
2023-02-26T04:41:57.038Z,0.90
2023-02-26T04:44:24.736Z,1.02
2023-02-26T04:46:51.815Z,1.48
2023-02-26T04:49:18.980Z,0.82
2023-02-26T04:51:46.104Z,0.68
2023-02-26T04:54:16.004Z,1.48
2023-02-26T04:56:43.513Z,0.80
2023-02-26T04:59:10.660Z,1.00
2023-02-26T05:01:37.737Z,1.00
2023-02-26T05:04:08.133Z,1.10
2023-02-26T05:06:35.577Z,1.48
2023-02-26T05:09:02.693Z,1.10
2023-02-26T05:11:30.808Z,1.17
2023-02-26T05:13:57.757Z,1.02
2023-02-26T05:16:25.138Z,2.08
2023-02-26T05:18:52.671Z,1.15
2023-02-26T05:21:22.481Z,0.90
2023-02-26T05:23:49.992Z,0.70
2023-02-26T05:26:17.517Z,0.60
2023-02-26T05:28:45.825Z,0.90
2023-02-26T05:31:14.009Z,0.73
2023-02-26T05:33:41.744Z,0.70
2023-02-26T05:36:09.361Z,0.65
2023-02-26T05:38:36.431Z,1.05
2023-02-26T05:41:03.376Z,0.88
2023-02-26T05:43:30.451Z,0.93
2023-02-26T05:45:57.395Z,1.15
2023-02-26T05:48:24.442Z,1.10
2023-02-26T05:50:52.098Z,1.17
2023-02-26T05:53:19.838Z,1.20
2023-02-26T05:55:46.972Z,0.70
2023-02-26T05:58:14.531Z,0.50
2023-02-26T06:00:41.523Z,0.60
2023-02-26T06:03:08.780Z,0.43
2023-02-26T06:05:36.256Z,0.70
2023-02-26T06:08:05.364Z,0.60
2023-02-26T06:10:33.178Z,0.68
2023-02-26T06:13:00.399Z,0.73
2023-02-26T06:15:27.497Z,0.60
2023-02-26T06:17:54.771Z,0.68
2023-02-26T06:20:21.773Z,0.63
2023-02-26T06:22:48.777Z,0.50
2023-02-26T06:25:16.108Z,0.70
2023-02-26T06:27:43.124Z,0.60
2023-02-26T06:30:11.539Z,0.60
2023-02-26T06:32:38.935Z,0.77
2023-02-26T06:35:06.806Z,0.82
2023-02-26T06:37:34.189Z,0.90
2023-02-26T06:40:01.215Z,0.55
2023-02-26T06:42:28.213Z,0.65
2023-02-26T06:44:55.299Z,0.50
2023-02-26T06:47:22.781Z,0.50
2023-02-26T06:49:49.762Z,0.63
2023-02-26T06:52:16.842Z,0.95
2023-02-26T06:54:43.910Z,0.85
2023-02-26T06:57:11.363Z,0.55
2023-02-26T06:59:38.323Z,1.33
2023-02-26T07:02:05.357Z,1.00
2023-02-26T07:04:32.345Z,0.60
2023-02-26T07:06:59.382Z,0.50
2023-02-26T07:09:26.420Z,0.45
2023-02-26T07:11:53.486Z,0.63
2023-02-26T07:14:45.911Z,0.60
2023-02-26T07:17:20.593Z,0.70
2023-02-26T07:19:49.946Z,0.65
2023-02-26T07:22:22.037Z,0.50
2023-02-26T07:24:50.099Z,0.55
2023-02-26T07:27:17.595Z,0.85
2023-02-26T07:29:44.551Z,0.77
2023-02-26T07:32:11.974Z,0.85
2023-02-26T07:34:39.020Z,0.73
2023-02-26T07:37:06.078Z,0.73
2023-02-26T07:39:33.043Z,0.65
2023-02-26T07:42:00.296Z,0.93
2023-02-26T07:44:29.521Z,0.90
2023-02-26T07:46:56.524Z,0.50
2023-02-26T07:49:24.247Z,1.38
2023-02-26T07:51:51.378Z,0.45
2023-02-26T07:54:18.669Z,0.70
2023-02-26T07:56:45.994Z,0.60
2023-02-26T07:59:13.316Z,0.70
2023-02-26T08:01:40.452Z,0.50
2023-02-26T08:04:07.518Z,0.50
2023-02-26T08:06:35.346Z,0.60
2023-02-26T08:09:04.105Z,1.08
2023-02-26T08:11:32.823Z,0.60
2023-02-26T08:13:59.760Z,0.60
2023-02-26T08:16:27.257Z,2.25
2023-02-26T08:18:54.658Z,1.67
2023-02-26T08:21:21.687Z,0.90
2023-02-26T08:23:48.984Z,0.75
2023-02-26T08:26:16.474Z,0.75
2023-02-26T08:28:43.463Z,0.70
2023-02-26T08:31:11.166Z,0.82
2023-02-26T08:33:38.199Z,0.95
2023-02-26T08:36:05.926Z,0.40
2023-02-26T08:38:33.338Z,0.45
2023-02-26T08:41:00.799Z,0.73
2023-02-26T08:43:27.832Z,0.50
2023-02-26T08:45:56.112Z,0.77
2023-02-26T08:48:24.325Z,0.60
2023-02-26T08:50:51.681Z,0.50
2023-02-26T08:53:18.865Z,0.60
2023-02-26T08:55:52.217Z,1.00
2023-02-26T08:58:20.278Z,0.60
2023-02-26T09:00:47.643Z,0.77
2023-02-26T09:03:15.384Z,0.98
2023-02-26T09:05:42.906Z,0.30
2023-02-26T09:08:11.578Z,0.68
2023-02-26T09:10:40.745Z,0.30
2023-02-26T09:13:09.721Z,0.40
2023-02-26T09:15:36.676Z,0.50
2023-02-26T09:18:04.346Z,0.77
2023-02-26T09:20:31.618Z,0.40
2023-02-26T09:22:58.635Z,0.40
2023-02-26T09:25:25.774Z,0.45
2023-02-26T09:27:52.999Z,0.50
2023-02-26T09:30:20.052Z,0.40
2023-02-26T09:32:47.076Z,0.90
2023-02-26T09:35:14.036Z,0.50
2023-02-26T09:37:41.035Z,0.38
2023-02-26T09:40:21.266Z,0.50
2023-02-26T09:43:00.181Z,0.30
2023-02-26T09:45:43.556Z,0.75
2023-02-26T09:48:15.556Z,0.30
2023-02-26T09:50:56.810Z,1.58
2023-02-26T09:53:34.263Z,1.17
2023-02-26T09:56:19.068Z,0.85
2023-02-26T09:58:46.546Z,0.65
2023-02-26T10:01:50.789Z,0.35
2023-02-26T10:05:16.458Z,0.40
2023-02-26T10:08:16.284Z,0.40
2023-02-26T10:11:03.611Z,0.30
2023-02-26T10:13:57.688Z,0.45
2023-02-26T10:16:29.901Z,0.55
2023-02-26T10:19:05.628Z,0.50
2023-02-26T10:21:50.936Z,0.50
2023-02-26T10:24:43.279Z,0.38
2023-02-26T10:27:16.443Z,0.40
2023-02-26T10:30:00.932Z,0.30
2023-02-26T10:32:46.861Z,0.38
2023-02-26T10:35:18.758Z,0.40
2023-02-26T10:38:02.907Z,0.90
2023-02-26T10:40:43.616Z,0.30
2023-02-26T10:43:39.604Z,0.50
2023-02-26T10:46:23.144Z,0.50
2023-02-26T10:49:16.211Z,0.32
2023-02-26T10:51:44.847Z,0.40
2023-02-26T10:54:24.531Z,0.35
2023-02-26T10:56:51.512Z,0.60
2023-02-26T10:59:18.641Z,0.88
2023-02-26T11:01:48.214Z,0.50
2023-02-26T11:04:19.116Z,0.32
2023-02-26T11:07:02.140Z,0.88
2023-02-26T11:09:44.373Z,0.35
2023-02-26T11:12:11.197Z,0.50
2023-02-26T11:14:40.029Z,0.43
2023-02-26T11:17:19.512Z,1.00
2023-02-26T11:20:18.095Z,0.40
2023-02-26T11:22:50.226Z,0.60
2023-02-26T11:25:23.747Z,0.30
2023-02-26T11:27:59.782Z,0.40
2023-02-26T11:30:31.722Z,0.40
2023-02-26T11:33:06.747Z,0.30
2023-02-26T11:35:33.828Z,0.85
2023-02-26T11:38:03.379Z,0.57
2023-02-26T11:40:42.464Z,1.00
2023-02-26T11:43:16.945Z,0.52
2023-02-26T11:45:49.178Z,0.32
2023-02-26T11:48:27.923Z,0.25
2023-02-26T11:51:00.788Z,0.20
2023-02-26T11:53:49.132Z,0.35
2023-02-26T11:56:40.340Z,0.40
2023-02-26T11:59:18.943Z,0.90
2023-02-26T12:01:47.055Z,0.22
2023-02-26T12:04:20.794Z,0.40
2023-02-26T12:06:51.576Z,0.30
2023-02-26T12:09:20.328Z,0.63
2023-02-26T12:12:24.623Z,0.40
2023-02-26T12:15:32.588Z,0.30
2023-02-26T12:18:29.385Z,0.40
2023-02-26T12:23:57.253Z,0.30
2023-02-26T12:26:41.361Z,0.40
2023-02-26T12:29:45.234Z,0.30
2023-02-26T12:32:43.257Z,0.73
2023-02-26T12:35:45.689Z,1.05
2023-02-26T12:38:38.970Z,0.50
2023-02-26T12:41:52.905Z,0.60
2023-02-26T12:45:06.571Z,0.50
2023-02-26T12:48:02.837Z,0.40
2023-02-26T12:51:13.691Z,0.30
2023-02-26T12:54:29.873Z,0.60
2023-02-26T12:57:13.203Z,0.50
2023-02-26T13:00:12.857Z,0.50
2023-02-26T13:02:57.398Z,0.73
2023-02-26T13:06:08.404Z,0.30
2023-02-26T13:09:07.832Z,0.40
2023-02-26T13:11:50.873Z,0.40
2023-02-26T13:14:43.713Z,0.28
2023-02-26T13:17:24.704Z,0.35
2023-02-26T13:20:00.760Z,0.40
2023-02-26T13:22:33.039Z,1.35
2023-02-26T13:25:24.755Z,0.47
2023-02-26T13:27:57.517Z,0.45
2023-02-26T13:30:43.401Z,0.90
2023-02-26T13:33:20.965Z,0.38
2023-02-26T13:35:50.098Z,0.38
2023-02-26T13:38:54.580Z,0.32
2023-02-26T13:42:04.974Z,0.30
2023-02-26T13:45:17.796Z,0.75
2023-02-26T13:48:11.323Z,0.40
2023-02-26T13:51:09.861Z,0.45
2023-02-26T13:53:52.012Z,0.30
2023-02-26T13:56:42.685Z,0.28
2023-02-26T13:59:12.370Z,0.38
2023-02-26T14:02:20.652Z,0.40
2023-02-26T14:04:59.784Z,0.38
2023-02-26T14:08:16.765Z,0.30
2023-02-26T14:10:49.600Z,0.30
2023-02-26T14:13:39.038Z,0.25
2023-02-26T14:16:24.641Z,0.47
2023-02-26T14:18:52.841Z,0.55
2023-02-26T14:21:37.142Z,0.20
2023-02-26T14:24:19.556Z,0.30
2023-02-26T14:26:52.243Z,0.35
2023-02-26T14:29:44.603Z,0.40
2023-02-26T14:32:23.123Z,0.30
2023-02-26T14:34:55.339Z,0.40
2023-02-26T14:37:26.425Z,0.22
2023-02-26T14:40:26.759Z,0.40
2023-02-26T14:42:58.859Z,0.30
2023-02-26T14:45:37.518Z,0.30
2023-02-26T14:48:14.208Z,0.30
2023-02-26T14:51:22.908Z,0.40
2023-02-26T14:53:58.815Z,0.25
2023-02-26T14:57:19.513Z,0.30
2023-02-26T15:00:48.253Z,0.38
2023-02-26T15:03:21.164Z,0.30
2023-02-26T15:06:37.462Z,0.40
2023-02-26T15:09:36.713Z,0.30
2023-02-26T15:12:44.374Z,0.20
2023-02-26T15:15:11.185Z,0.28
2023-02-26T15:18:39.761Z,1.38
2023-02-26T15:21:21.776Z,0.38
2023-02-26T15:23:52.785Z,0.50
2023-02-26T15:26:34.375Z,0.20
2023-02-26T15:29:07.077Z,0.30
2023-02-26T15:31:44.924Z,0.30
2023-02-26T15:34:14.333Z,0.20
2023-02-26T15:36:46.738Z,0.40
2023-02-26T15:39:17.489Z,0.50
2023-02-26T15:41:47.602Z,0.20
2023-02-26T15:44:23.493Z,0.30
2023-02-26T15:47:00.322Z,0.30
2023-02-26T15:49:34.026Z,0.17
2023-02-26T15:52:03.448Z,0.28
2023-02-26T15:54:40.237Z,0.30
2023-02-26T15:57:09.429Z,0.30
2023-02-26T15:59:48.325Z,0.20
2023-02-26T16:02:20.821Z,0.30
2023-02-26T16:04:48.461Z,0.45
2023-02-26T16:07:15.572Z,0.52
2023-02-26T16:09:50.047Z,0.30
2023-02-26T16:12:38.716Z,0.28
2023-02-26T16:15:13.451Z,0.90
2023-02-26T16:17:45.091Z,0.60
2023-02-26T16:20:17.850Z,0.60
2023-02-26T16:22:50.757Z,0.45
2023-02-26T16:25:26.576Z,0.80
2023-02-26T16:30:37.714Z,1.38
2023-02-26T16:33:10.549Z,0.50
2023-02-26T16:35:43.849Z,0.40
2023-02-26T16:38:29.493Z,1.13
2023-02-26T16:41:05.925Z,0.50
2023-02-26T16:43:48.148Z,0.30
2023-02-26T16:46:31.304Z,0.40
2023-02-26T16:49:20.634Z,0.40
2023-02-26T16:51:48.895Z,0.63
2023-02-26T16:54:21.776Z,0.40
2023-02-26T16:57:07.736Z,0.50
2023-02-26T16:59:39.173Z,0.22
2023-02-26T17:02:21.601Z,0.57
2023-02-26T17:04:54.806Z,0.20
2023-02-26T17:07:34.569Z,0.50
2023-02-26T17:10:20.500Z,0.40
2023-02-26T17:12:52.580Z,0.45
2023-02-26T17:15:35.777Z,0.40
2023-02-26T17:18:03.023Z,0.45
2023-02-26T17:20:31.878Z,0.65
2023-02-26T17:23:01.731Z,0.50
2023-02-26T17:25:36.808Z,0.20
2023-02-26T17:28:04.529Z,0.90
2023-02-26T17:30:33.498Z,0.43
2023-02-26T17:33:04.002Z,0.30
2023-02-26T17:35:31.531Z,0.88
2023-02-26T17:38:00.504Z,0.50
2023-02-26T17:40:36.536Z,0.57
2023-02-26T17:43:04.802Z,0.35
2023-02-26T17:45:32.854Z,0.60
2023-02-26T17:48:00.268Z,0.80
2023-02-26T17:50:55.342Z,0.60
2023-02-26T17:53:27.394Z,0.80
2023-02-26T17:55:56.480Z,0.57
2023-02-26T17:58:36.569Z,1.20
2023-02-26T18:01:04.669Z,0.77
2023-02-26T18:03:32.238Z,0.52
2023-02-26T18:05:59.857Z,0.60
2023-02-26T18:08:35.749Z,0.80
2023-02-26T18:13:33.609Z,0.80
2023-02-26T18:16:02.811Z,0.60
2023-02-26T18:18:31.900Z,0.88
2023-02-26T18:20:59.818Z,0.98
2023-02-26T18:23:26.922Z,1.02
2023-02-26T18:25:54.901Z,1.45
2023-02-26T18:28:27.958Z,0.57
2023-02-26T18:30:57.052Z,0.80
2023-02-26T18:33:25.247Z,0.73
2023-02-26T18:35:56.800Z,0.70
2023-02-26T18:38:27.678Z,0.70
2023-02-26T18:40:55.025Z,1.40
2023-02-26T18:43:22.146Z,0.70
2023-02-26T18:45:52.144Z,2.42
2023-02-26T18:48:21.016Z,1.60
2023-02-26T18:50:49.167Z,0.95
2023-02-26T18:53:17.651Z,1.15
2023-02-26T18:55:45.394Z,0.95
2023-02-26T18:58:13.171Z,0.85
2023-02-26T19:00:40.218Z,0.98
2023-02-26T19:03:09.281Z,0.65
2023-02-26T19:05:37.535Z,0.90
2023-02-26T19:08:05.786Z,1.30
2023-02-26T19:10:34.247Z,0.73
2023-02-26T19:13:01.968Z,0.80
2023-02-26T19:15:28.950Z,0.90
2023-02-26T19:17:56.088Z,0.82
2023-02-26T19:20:23.068Z,1.55
2023-02-26T19:22:50.141Z,1.63
2023-02-26T19:25:24.293Z,0.43
2023-02-26T19:27:53.606Z,0.60
2023-02-26T19:30:22.991Z,0.70
2023-02-26T19:32:51.361Z,0.98
2023-02-26T19:35:19.585Z,1.05
2023-02-26T19:37:47.093Z,0.93
2023-02-26T19:40:19.565Z,0.82
2023-02-26T19:42:47.901Z,0.85
2023-02-26T19:45:16.001Z,0.75
2023-02-26T19:47:43.446Z,0.70
2023-02-26T19:50:12.172Z,1.15
2023-02-26T19:52:39.085Z,0.80
2023-02-26T19:55:07.969Z,1.08
2023-02-26T19:57:35.065Z,0.80
2023-02-26T20:00:03.248Z,1.55
2023-02-26T20:02:39.430Z,0.90
2023-02-26T20:05:07.829Z,0.70
2023-02-26T20:07:35.071Z,0.90
2023-02-26T20:10:02.074Z,1.13
2023-02-26T20:12:30.304Z,1.25
2023-02-26T20:14:57.747Z,0.75
2023-02-26T20:17:25.099Z,0.80
2023-02-26T20:19:52.096Z,0.73
2023-02-26T20:22:22.688Z,0.82
2023-02-26T20:24:49.686Z,0.80
2023-02-26T20:27:16.658Z,1.20
2023-02-26T20:29:43.610Z,1.00
2023-02-26T20:32:10.804Z,0.70
2023-02-26T20:34:38.555Z,0.80
2023-02-26T20:37:05.534Z,1.77
2023-02-26T20:39:32.589Z,0.60
2023-02-26T20:41:59.946Z,1.90
2023-02-26T20:44:26.936Z,0.70
2023-02-26T20:46:55.017Z,0.80
2023-02-26T20:49:22.191Z,0.60
2023-02-26T20:51:50.504Z,0.57
2023-02-26T20:54:19.828Z,1.15
2023-02-26T20:56:48.705Z,0.70
2023-02-26T20:59:17.900Z,0.40
2023-02-26T21:01:46.658Z,0.77
2023-02-26T21:04:13.807Z,0.65
2023-02-26T21:06:40.742Z,0.70
2023-02-26T21:09:11.002Z,1.00
2023-02-26T21:11:39.503Z,1.00
2023-02-26T21:14:08.119Z,1.80
2023-02-26T21:16:36.145Z,0.80
2023-02-26T21:19:04.561Z,0.60
2023-02-26T21:21:32.173Z,0.90
2023-02-26T21:23:59.411Z,0.80
2023-02-26T21:26:27.863Z,0.88
2023-02-26T21:28:54.986Z,0.73
2023-02-26T21:31:22.436Z,0.82
2023-02-26T21:33:49.501Z,1.05
2023-02-26T21:36:16.982Z,0.60
2023-02-26T21:38:44.233Z,0.90
2023-02-26T21:41:11.305Z,1.15
2023-02-26T21:43:39.174Z,0.77
2023-02-26T21:46:06.815Z,0.77
2023-02-26T21:48:34.135Z,1.08
2023-02-26T21:51:01.498Z,0.68
2023-02-26T21:53:28.814Z,0.82
2023-02-26T21:55:56.902Z,0.80
2023-02-26T21:58:25.372Z,0.82
2023-02-26T22:00:52.447Z,0.70
2023-02-26T22:03:19.526Z,0.60
2023-02-26T22:05:49.737Z,1.65
2023-02-26T22:08:16.644Z,1.65
2023-02-26T22:10:45.533Z,0.68
2023-02-26T22:13:13.093Z,1.00
2023-02-26T22:15:40.104Z,0.77
2023-02-26T22:18:07.144Z,1.25
2023-02-26T22:20:34.118Z,1.40
2023-02-26T22:23:01.112Z,0.75
2023-02-26T22:25:28.140Z,0.88
2023-02-26T22:27:55.118Z,0.80
2023-02-26T22:30:22.149Z,1.17
2023-02-26T22:32:49.185Z,0.80
2023-02-26T22:35:17.205Z,0.93
2023-02-26T22:37:44.613Z,0.90
2023-02-26T22:40:13.699Z,0.60
2023-02-26T22:42:42.585Z,0.80
2023-02-26T22:45:16.993Z,0.60
2023-02-26T22:47:45.587Z,1.02
2023-02-26T22:50:14.343Z,1.00
2023-02-26T22:52:41.949Z,0.85
2023-02-26T22:55:10.279Z,0.80
2023-02-26T22:57:37.506Z,0.68
2023-02-26T23:00:11.399Z,0.60
2023-02-26T23:02:41.034Z,0.70
2023-02-26T23:05:12.026Z,0.90
2023-02-26T23:07:40.489Z,1.20
2023-02-26T23:10:12.464Z,0.65
2023-02-26T23:12:39.724Z,0.70
2023-02-26T23:15:08.909Z,1.77
2023-02-26T23:17:36.471Z,1.48
2023-02-26T23:20:05.901Z,0.75
2023-02-26T23:22:32.759Z,0.90
2023-02-26T23:24:59.747Z,1.08
2023-02-26T23:27:26.971Z,0.90
2023-02-26T23:29:54.001Z,1.10
2023-02-26T23:32:20.975Z,2.25
2023-02-26T23:34:48.144Z,3.10
2023-02-26T23:37:15.601Z,1.80
2023-02-26T23:39:42.648Z,1.10
2023-02-26T23:42:09.661Z,1.10
2023-02-26T23:44:36.648Z,2.13
2023-02-26T23:47:03.669Z,1.17
2023-02-26T23:49:30.600Z,0.93
2023-02-26T23:51:57.558Z,0.82
2023-02-26T23:54:24.549Z,0.85
2023-02-26T23:56:51.453Z,1.10
2023-02-26T23:59:18.474Z,1.58
